familyfreshmeals.com alexa rank chart, familyfreshmeals.com alexa rank daily changes

familyfreshmeals.com alexa rank chart, familyfreshmeals.com alexa rank daily changes

familyfreshmeals.com
Actual rank:
54 500

RANK HISTORY

Date Rank Diff
2018/01/20 54 500 +486
2018/01/19 54 014 +154
2018/01/18 53 860 +233
2018/01/17 53 627 -673
2018/01/16 54 300 -1 149
2018/01/15 55 449 -1 122
2018/01/14 56 571 +135
2018/01/13 56 436 -576
2018/01/12 57 012 -9
2018/01/11 57 021 +502
2018/01/10 56 519 -166
2018/01/09 56 685 -704
2018/01/08 57 389 -1 536
2018/01/07 58 925 -86
2018/01/06 59 011 -566
2018/01/05 59 577 -15
2018/01/04 59 592 -617
2018/01/03 60 209 -1 079
2018/01/02 61 288 -840
2018/01/01 62 128 -1 021
2017/12/31 63 149 -55
2017/12/30 63 204 +166
2017/12/29 63 038 -1 094
2017/12/28 64 132 +284
2017/12/27 63 848 -445
2017/12/26 64 293 -2 119
2017/12/25 66 412 +1 108
2017/12/24 65 304 -584
2017/12/23 65 888 -363
2017/12/22 66 251 +331
2017/12/21 65 920 +1 589
2017/12/20 64 331 +395
2017/12/19 63 936 -662
2017/12/18 64 598 -1 581
2017/12/17 66 179 -760
2017/12/16 66 939 +51
2017/12/15 66 888 -508
2017/12/14 67 396 +164
2017/12/13 67 232 +1 204
2017/12/12 66 028 -1 522
2017/12/11 67 550 -576
2017/12/10 68 126 +92
2017/12/09 68 034 +17
2017/12/08 68 017 +1 838
2017/12/07 66 179 +1 217
2017/12/06 64 962 +1 425
2017/12/05 63 537 -347
2017/12/04 63 884 -489
2017/12/03 64 373 +46
2017/12/02 64 327 +361
2017/12/01 63 966 +1 388
2017/11/30 62 578 +796
2017/11/29 61 782 +634
2017/11/28 61 148 -781
2017/11/27 61 929 +608
2017/11/26 61 321 +568
2017/11/25 60 753 -1 842
2017/11/24 62 595 +1 521
2017/11/23 61 074 +837
2017/11/22 60 237 -66
2017/11/21 60 303

WIDGET FOR YOUR SITE

DOMAINS WITH THE NEAREST RANK

Domain Rank
iautos.cn 54 495
library.sh.cn 54 496
ihs.com.tr 54 497
digiday.jp 54 498
toyodiy.com 54 499
familyfreshmeals.com 54 500
hsamuel.co.uk 54 501
289.com 54 502
brmovies.me 54 503
futoka.jp 54 504
apahotel.com 54 505

DOMAINS WITH THE NEAREST RANK BY TLD .com

Domain Rank
marlboro.com 54 487
energysage.com 54 489
b400393baba7cd476a3.com 54 491
tangoporno.com 54 494
toyodiy.com 54 499
familyfreshmeals.com 54 500
289.com 54 502
apahotel.com 54 505
2redbeans.com 54 506
bpm-power.com 54 508
samsonite.com 54 509